Time;durP1;ratioP1;P1;durP2;ratioP2;P2;SDS_P1;SDS_P2;PMS_P1;PMS_P2;Temp;Humidity;BMP_temperature;BMP_pressure;BME280_temperature;BME280_humidity;BME280_pressure;Samples;Min_cycle;Max_cycle;Signal;HPM_P1;HPM_P2
2023/04/12 00:00:33;;;;;;;;;2.67;2.67;;;;;12.83;67.44;100326.63;1975076;28;2745050;-73
2023/04/12 00:01:43;;;;;;;;;2.33;2.33;;;;;12.83;67.44;100326.63;1948525;28;2754450;-73
2023/04/12 00:02:54;;;;;;;;;4.00;4.00;;;;;12.82;67.37;100328.41;1994163;28;2752360;-73
2023/04/12 00:04:08;;;;;;;;;4.00;3.33;;;;;12.82;67.53;100323.13;1976198;28;2739866;-73
2023/04/12 00:05:25;;;;;;;;;1.33;1.33;;;;;12.81;67.45;100321.44;1974236;28;2739834;-73
2023/04/12 00:06:39;;;;;;;;;6.83;3.00;;;;;12.79;67.48;100317.16;1996688;28;2732578;-73
2023/04/12 00:07:52;;;;;;;;;3.67;3.33;;;;;12.79;67.75;100320.63;1971518;28;2748197;-73
2023/04/12 00:09:07;;;;;;;;;4.17;2.67;;;;;12.80;67.75;100311.81;1997609;28;2748190;-73
2023/04/12 00:10:21;;;;;;;;;5.17;3.00;;;;;12.81;67.56;100312.66;1973787;28;2745135;-73
2023/04/12 00:11:34;;;;;;;;;4.83;2.17;;;;;12.81;67.65;100302.97;2004587;28;2750265;-73
2023/04/12 00:12:48;;;;;;;;;4.83;3.50;;;;;12.82;67.75;100312.59;1974970;28;2741937;-73
2023/04/12 00:14:01;;;;;;;;;4.50;4.17;;;;;12.83;67.38;100300.25;1974493;28;2746095;-73
2023/04/12 00:15:14;;;;;;;;;4.33;2.67;;;;;12.84;67.69;100307.22;1979200;28;2747129;-73
2023/04/12 00:16:27;;;;;;;;;3.00;2.50;;;;;12.82;68.12;100304.66;1977957;28;2735709;-73
2023/04/12 00:17:41;;;;;;;;;6.00;2.83;;;;;12.83;67.71;100300.25;1973714;28;2741999;-73
2023/04/12 00:18:54;;;;;;;;;6.67;3.50;;;;;12.83;67.87;100301.13;1973667;28;2750305;-73
2023/04/12 00:20:11;;;;;;;;;3.50;3.50;;;;;12.83;67.87;100298.47;1973644;28;2741949;-73
2023/04/12 00:21:27;;;;;;;;;2.50;2.33;;;;;12.83;67.84;100290.56;1960749;28;2748171;-73
2023/04/12 00:22:41;;;;;;;;;4.17;2.50;;;;;12.85;67.76;100286.97;1970603;28;2739849;-73
2023/04/12 00:23:51;;;;;;;;;5.00;4.00;;;;;12.85;68.06;100282.56;1948469;28;2754435;-73
2023/04/12 00:25:02;;;;;;;;;4.00;2.00;;;;;12.87;67.96;100285.13;1986599;28;3464841;-73
2023/04/12 00:26:14;;;;;;;;;6.33;4.00;;;;;12.88;67.73;100281.56;1972162;28;2754509;-73
2023/04/12 00:27:24;;;;;;;;;4.00;4.00;;;;;12.87;67.63;100285.97;1964574;28;2754517;-73
2023/04/12 00:28:36;;;;;;;;;8.00;3.00;;;;;12.89;67.80;100283.28;1979214;28;2754445;-73
2023/04/12 00:29:48;;;;;;;;;3.60;2.00;;;;;12.89;67.75;100284.09;1985121;28;2740918;-73
2023/04/12 00:31:01;;;;;;;;;3.33;2.33;;;;;12.91;67.72;100281.41;1987686;28;2747136;-73
2023/04/12 00:32:14;;;;;;;;;6.00;3.33;;;;;12.92;67.96;100275.19;1973757;28;2745123;-73
2023/04/12 00:33:28;;;;;;;;;2.00;1.83;;;;;12.93;67.77;100276.91;1972418;28;2742978;-73
2023/04/12 00:34:41;;;;;;;;;4.33;3.83;;;;;12.92;67.89;100273.41;1998824;28;2748180;-73
2023/04/12 00:35:54;;;;;;;;;2.83;2.67;;;;;12.92;67.77;100260.22;1980720;28;2749795;-73
2023/04/12 00:37:04;;;;;;;;;3.00;3.00;;;;;12.93;67.74;100263.72;1955833;28;2754451;-73
2023/04/12 00:38:16;;;;;;;;;4.00;4.00;;;;;12.93;67.76;100261.09;1999352;28;2754456;-73
2023/04/12 00:39:29;;;;;;;;;5.83;3.67;;;;;12.93;67.79;100258.44;1974909;28;2734646;-73
2023/04/12 00:40:43;;;;;;;;;3.67;3.00;;;;;12.94;67.80;100254.84;1973272;28;2736733;-73
2023/04/12 00:41:56;;;;;;;;;2.33;2.33;;;;;12.94;67.83;100260.13;1974437;28;2733604;-72
2023/04/12 00:43:14;;;;;;;;;4.17;4.17;;;;;12.94;67.59;100246.94;1997176;28;2746198;-73
2023/04/12 00:44:27;;;;;;;;;4.33;3.50;;;;;12.94;67.75;100241.66;1974215;28;2741976;-73
2023/04/12 00:45:41;;;;;;;;;5.00;2.50;;;;;12.96;67.79;100247.75;1995846;28;2741948;-73
2023/04/12 00:46:54;;;;;;;;;4.17;2.17;;;;;12.96;67.95;100244.25;1974251;28;2736729;-72
2023/04/12 00:48:05;;;;;;;;;8.00;3.00;;;;;12.94;67.63;100239.91;1970772;28;3464849;-73
2023/04/12 00:49:16;;;;;;;;;4.00;3.25;;;;;12.93;67.71;100243.47;1995322;28;2744044;-73
2023/04/12 00:50:30;;;;;;;;;4.33;2.33;;;;;12.93;67.57;100235.56;1995225;28;2733630;-73
2023/04/12 00:51:43;;;;;;;;;3.00;3.00;;;;;12.93;67.90;100232.06;1973357;28;2740894;-73
2023/04/12 00:52:57;;;;;;;;;7.50;3.83;;;;;12.94;67.67;100226.72;1973281;28;2752361;-73
2023/04/12 00:54:12;;;;;;;;;2.50;2.00;;;;;12.95;67.86;100222.28;1975435;28;2732551;-73
2023/04/12 00:55:23;;;;;;;;;7.00;3.00;;;;;12.95;67.48;100219.66;1956455;28;2758567;-73
2023/04/12 00:56:37;;;;;;;;;6.00;3.00;;;;;12.96;67.84;100210.81;1996785;28;2739309;-73
2023/04/12 00:57:50;;;;;;;;;3.17;3.00;;;;;12.97;67.58;100203.72;2004093;28;2725278;-73
2023/04/12 00:59:04;;;;;;;;;5.00;3.83;;;;;12.96;67.73;100195.00;1979899;28;2745113;-73
2023/04/12 01:00:17;;;;;;;;;6.50;2.17;;;;;12.98;67.97;100208.09;1980926;28;2754471;-73
2023/04/12 01:01:30;;;;;;;;;3.83;3.50;;;;;12.98;67.73;100202.81;1973607;28;2739853;-73
2023/04/12 01:02:45;;;;;;;;;4.33;2.17;;;;;12.97;67.28;100199.31;1996724;28;2739853;-73
2023/04/12 01:03:59;;;;;;;;;2.17;2.17;;;;;12.97;67.45;100201.97;1995430;28;2752364;-73
2023/04/12 01:05:13;;;;;;;;;3.33;3.00;;;;;12.98;67.64;100197.53;1948750;28;2754463;-73
2023/04/12 01:06:45;;;;;;;;;3.83;3.50;;;;;12.98;67.62;100193.13;1994567;28;2748219;-73
2023/04/12 01:08:20;;;;;;;;;4.00;4.00;;;;;13.00;67.62;100200.94;1948566;28;2752369;-73
2023/04/12 01:09:57;;;;;;;;;4.67;2.83;;;;;12.99;67.85;100181.63;1992004;28;2752359;-73
2023/04/12 01:11:40;;;;;;;;;4.17;2.83;;;;;13.00;67.75;100154.31;1990452;28;2738832;-73
2023/04/12 01:13:04;;;;;;;;;5.83;3.00;;;;;13.00;67.90;100154.31;1964585;28;2748182;-73
2023/04/12 01:14:28;;;;;;;;;2.33;1.67;;;;;13.01;67.94;100144.63;1995890;28;2731761;-73
2023/04/12 01:15:52;;;;;;;;;4.00;2.00;;;;;13.01;67.30;100145.44;1970593;28;2755356;-73
2023/04/12 01:17:13;;;;;;;;;2.67;1.83;;;;;13.02;67.81;100147.16;1973384;28;2739838;-73
2023/04/12 01:18:27;;;;;;;;;4.33;3.00;;;;;13.02;67.60;100144.53;1947033;28;3457609;-73
2023/04/12 01:19:56;;;;;;;;;5.00;2.50;;;;;13.03;68.37;100155.94;1988203;28;2752345;-73
2023/04/12 01:21:23;;;;;;;;;2.00;1.83;;;;;13.03;67.58;100143.63;1966241;28;2744092;-73
2023/04/12 01:22:48;;;;;;;;;3.00;2.33;;;;;13.02;67.62;100144.53;1974126;28;2746097;-73
2023/04/12 01:24:37;;;;;;;;;5.67;2.83;;;;;13.03;67.80;100153.31;1969825;28;2743467;-73
2023/04/12 01:26:20;;;;;;;;;2.33;2.33;;;;;13.03;67.72;100143.63;1966253;28;2746111;-73
2023/04/12 01:27:48;;;;;;;;;2.67;2.67;;;;;13.01;67.95;100140.19;1966831;28;2736720;-73
2023/04/12 01:29:08;;;;;;;;;3.50;3.00;;;;;13.01;67.55;100142.00;1988974;28;2746100;-73
2023/04/12 01:30:26;;;;;;;;;5.67;3.00;;;;;12.99;67.86;100136.78;1988611;28;2741933;-73
2023/04/12 01:31:49;;;;;;;;;3.00;2.00;;;;;12.99;67.63;100136.78;1972698;28;2740895;-73
2023/04/12 01:33:05;;;;;;;;;4.33;2.83;;;;;12.99;67.68;100143.88;1966242;28;2754448;-73
2023/04/12 01:34:21;;;;;;;;;3.67;3.33;;;;;12.98;67.74;100129.81;1963532;28;2750274;-73
2023/04/12 01:35:36;;;;;;;;;3.67;3.00;;;;;12.98;67.64;100129.81;1964898;28;2752341;-73
2023/04/12 01:36:48;;;;;;;;;3.33;2.33;;;;;12.99;68.00;100115.66;1942022;28;2754441;-73
2023/04/12 01:37:59;;;;;;;;;5.00;3.33;;;;;13.00;67.87;100125.31;1969376;28;2748206;-73
2023/04/12 01:39:13;;;;;;;;;3.00;2.00;;;;;13.00;67.76;100112.13;1989449;28;2740333;-73
2023/04/12 01:40:28;;;;;;;;;5.00;3.67;;;;;13.02;68.01;100109.38;1966960;28;2738832;-73
2023/04/12 01:41:44;;;;;;;;;3.83;2.33;;;;;13.02;67.96;100110.25;1965378;28;2750257;-73
2023/04/12 01:43:07;;;;;;;;;5.17;2.33;;;;;13.02;67.44;100099.69;1966615;28;2747146;-73
2023/04/12 01:44:20;;;;;;;;;2.67;2.67;;;;;13.04;67.64;100103.09;1967097;28;2729941;-73
2023/04/12 01:45:34;;;;;;;;;2.50;2.00;;;;;13.05;67.93;100104.81;1966187;28;2737797;-73
2023/04/12 01:46:47;;;;;;;;;2.50;1.50;;;;;13.06;67.83;100097.75;1989849;28;2744019;-73
2023/04/12 01:48:03;;;;;;;;;4.67;3.00;;;;;13.07;67.82;100096.81;1988521;28;2745095;-73
2023/04/12 01:49:17;;;;;;;;;2.50;2.00;;;;;13.08;67.66;100087.97;1988827;28;2753383;-73
2023/04/12 01:51:01;;;;;;;;;4.00;2.67;;;;;13.08;67.92;100082.69;1965941;28;2750997;-73
2023/04/12 01:52:18;;;;;;;;;4.33;2.67;;;;;13.05;67.41;100083.69;1934033;28;2734625;-73
2023/04/12 01:54:02;;;;;;;;;6.67;3.83;;;;;13.04;67.71;100075.84;1986900;28;2750294;-73
2023/04/12 01:55:16;;;;;;;;;1.83;1.83;;;;;13.03;67.85;100074.16;1963398;28;2749567;-73
2023/04/12 01:56:35;;;;;;;;;2.83;2.67;;;;;13.02;67.59;100068.03;1965489;28;2742987;-73
2023/04/12 01:57:49;;;;;;;;;1.67;1.17;;;;;13.03;68.12;100060.97;1966571;28;2732006;-73
2023/04/12 01:59:03;;;;;;;;;9.17;3.67;;;;;13.03;67.97;100072.38;1989485;28;2732565;-73
2023/04/12 02:00:18;;;;;;;;;5.83;3.67;;;;;13.02;67.76;100073.31;1967196;28;2748197;-73
2023/04/12 02:01:29;;;;;;;;;3.33;2.67;;;;;13.02;67.79;100065.41;1938899;28;2754450;-73
2023/04/12 02:02:43;;;;;;;;;2.17;2.17;;;;;13.03;67.81;100058.34;1989230;28;2746465;-73
2023/04/12 02:03:59;;;;;;;;;4.67;4.00;;;;;13.02;68.00;100057.47;1966166;28;2739854;-73
2023/04/12 02:05:12;;;;;;;;;5.00;3.33;;;;;13.02;67.72;100056.63;1969524;28;2748175;-73
2023/04/12 02:06:26;;;;;;;;;3.33;2.00;;;;;13.01;67.78;100054.94;1996228;28;2752418;-73
2023/04/12 02:07:41;;;;;;;;;7.00;3.00;;;;;12.99;68.00;100057.63;1974220;28;2735703;-73
2023/04/12 02:09:01;;;;;;;;;2.50;2.00;;;;;12.98;68.01;100050.69;1973855;28;2730471;-73
2023/04/12 02:10:15;;;;;;;;;4.83;2.83;;;;;12.98;67.77;100045.41;1974101;28;2740204;-73
2023/04/12 02:11:28;;;;;;;;;3.67;3.00;;;;;12.99;68.27;100046.25;1970261;28;2742496;-73
2023/04/12 02:12:41;;;;;;;;;3.50;2.50;;;;;13.00;68.07;100053.22;1972669;28;2754463;-73
2023/04/12 02:13:55;;;;;;;;;3.33;2.00;;;;;13.01;68.08;100049.66;1972845;28;2753396;-73
2023/04/12 02:15:06;;;;;;;;;5.00;3.67;;;;;13.02;68.09;100049.56;1973655;28;2748326;-73
2023/04/12 02:16:21;;;;;;;;;4.00;4.00;;;;;13.03;67.93;100038.09;1995027;28;2748198;-73
2023/04/12 02:17:36;;;;;;;;;8.50;3.50;;;;;13.03;67.94;100032.81;1973052;28;2744068;-73
2023/04/12 02:18:49;;;;;;;;;4.83;2.67;;;;;13.04;68.05;100029.22;1973946;28;2746134;-73
2023/04/12 02:20:08;;;;;;;;;3.33;2.50;;;;;13.05;68.67;100024.81;1976314;28;2738811;-73
2023/04/12 02:21:21;;;;;;;;;3.00;2.00;;;;;13.03;68.15;100019.63;1973419;28;2741971;-73
2023/04/12 02:22:35;;;;;;;;;6.00;3.00;;;;;13.05;68.17;100014.25;1973736;28;2739856;-73
2023/04/12 02:23:49;;;;;;;;;3.33;3.33;;;;;13.05;68.37;100020.38;1973542;28;2745081;-73
2023/04/12 02:25:04;;;;;;;;;4.50;3.00;;;;;13.07;68.16;100007.09;1996513;28;2752337;-73
2023/04/12 02:26:17;;;;;;;;;3.67;3.00;;;;;13.07;68.04;100003.59;1973183;28;2744500;-73
2023/04/12 02:27:31;;;;;;;;;3.17;3.17;;;;;13.08;68.42;100003.53;1996669;28;2737792;-73
2023/04/12 02:28:45;;;;;;;;;2.83;2.50;;;;;13.08;68.30;100002.69;1974245;28;2744068;-73
2023/04/12 02:29:58;;;;;;;;;4.00;2.33;;;;;13.05;68.35;100004.56;1995493;28;2754425;-73
2023/04/12 02:31:12;;;;;;;;;4.00;4.00;;;;;13.04;69.24;99997.56;1965011;28;2741965;-73
2023/04/12 02:32:25;;;;;;;;;2.50;2.33;;;;;13.03;68.50;99993.25;1966584;28;2748174;-73
2023/04/12 02:33:39;;;;;;;;;4.00;3.00;;;;;13.03;68.62;99993.25;1972378;28;2754452;-73
2023/04/12 02:34:53;;;;;;;;;3.33;2.50;;;;;13.03;68.36;99980.06;1973528;28;2752396;-73
2023/04/12 02:36:09;;;;;;;;;4.00;3.00;;;;;13.06;68.83;99984.31;1948358;28;2745066;-73
2023/04/12 02:37:23;;;;;;;;;4.67;4.00;;;;;13.07;68.32;99980.72;1971112;28;2746147;-73
2023/04/12 02:38:36;;;;;;;;;5.33;3.50;;;;;13.08;68.54;99973.66;1996598;28;2741925;-73
2023/04/12 02:39:49;;;;;;;;;2.33;0.33;;;;;13.10;68.56;99974.41;1996217;28;2720083;-73
2023/04/12 02:41:03;;;;;;;;;5.67;4.00;;;;;13.10;69.02;99983.19;1996738;28;2741929;-73
2023/04/12 02:42:16;;;;;;;;;2.83;2.50;;;;;13.10;68.56;99974.41;1996706;28;2751309;-73
2023/04/12 02:43:29;;;;;;;;;2.33;2.33;;;;;13.11;68.85;99973.50;1972179;28;2754944;-73
2023/04/12 02:44:46;;;;;;;;;5.83;3.33;;;;;13.10;68.70;99963.88;1973620;28;2750281;-73
2023/04/12 02:45:59;;;;;;;;;4.67;3.00;;;;;13.10;68.70;99969.16;1973337;28;2750282;-73
2023/04/12 02:47:13;;;;;;;;;3.00;2.50;;;;;13.11;68.72;99960.31;1972668;28;2752709;-73
2023/04/12 02:48:26;;;;;;;;;3.67;2.17;;;;;13.11;68.56;99963.78;1972987;28;2754460;-73
2023/04/12 02:49:39;;;;;;;;;2.33;2.17;;;;;13.11;68.77;99962.94;1972958;28;2746482;-74
2023/04/12 02:50:53;;;;;;;;;3.50;2.00;;;;;13.10;68.77;99963.88;1975070;28;2746103;-73
2023/04/12 02:52:06;;;;;;;;;2.00;1.50;;;;;13.12;68.71;99956.72;1983588;28;2735771;-73
2023/04/12 02:53:20;;;;;;;;;5.83;2.33;;;;;13.12;68.74;99946.16;1997267;28;2747536;-74
2023/04/12 02:54:33;;;;;;;;;3.00;3.00;;;;;13.13;68.87;99948.72;1974867;28;2747128;-73
2023/04/12 02:55:47;;;;;;;;;4.00;3.00;;;;;13.14;68.72;99944.28;1973749;28;2740892;-74
2023/04/12 02:57:00;;;;;;;;;1.83;1.00;;;;;13.15;68.84;99946.84;1975503;28;2733649;-73
2023/04/12 02:58:13;;;;;;;;;3.17;2.50;;;;;13.14;68.87;99945.13;1998211;28;2741932;-74
2023/04/12 02:59:27;;;;;;;;;4.17;2.00;;;;;13.15;69.12;99938.06;1974948;28;2753422;-73
2023/04/12 03:00:42;;;;;;;;;2.50;2.33;;;;;13.16;68.86;99935.34;1974358;28;2752356;-74
2023/04/12 03:01:55;;;;;;;;;2.33;2.00;;;;;13.17;68.84;99930.91;1974844;28;2746118;-73
2023/04/12 03:03:08;;;;;;;;;3.00;2.83;;;;;13.18;68.78;99926.50;1973858;28;2745549;-73
2023/04/12 03:04:29;;;;;;;;;3.00;3.00;;;;;13.18;69.07;99940.56;1974339;28;2733627;-74
2023/04/12 03:05:46;;;;;;;;;2.50;1.50;;;;;13.17;68.97;99933.56;1974947;28;2739870;-73
2023/04/12 03:06:59;;;;;;;;;3.50;1.83;;;;;13.18;69.05;99929.13;1997882;28;2745077;-73
2023/04/12 03:08:09;;;;;;;;;3.00;2.00;;;;;13.19;68.91;99936.97;1948519;28;2745184;-74
2023/04/12 03:09:20;;;;;;;;;2.67;2.00;;;;;13.20;69.55;99927.25;1996406;28;2748186;-73
2023/04/12 03:10:34;;;;;;;;;4.17;2.00;;;;;13.20;69.19;99917.56;1973396;28;2745054;-73
2023/04/12 03:11:47;;;;;;;;;1.67;1.67;;;;;13.21;69.33;99926.34;1975132;28;2744071;-74
2023/04/12 03:13:00;;;;;;;;;2.83;2.00;;;;;13.23;69.24;99913.91;1998259;28;2745070;-73
2023/04/12 03:14:13;;;;;;;;;1.50;1.50;;;;;13.23;69.24;99914.75;1980477;28;2726336;-73
2023/04/12 03:15:28;;;;;;;;;3.00;1.83;;;;;13.24;69.37;99911.16;2003976;28;2745108;-73
2023/04/12 03:16:42;;;;;;;;;3.33;2.00;;;;;13.23;69.29;99905.97;1976409;28;2753395;-73
2023/04/12 03:17:55;;;;;;;;;2.83;2.00;;;;;13.25;69.25;99912.03;1974772;28;2741940;-73
2023/04/12 03:19:08;;;;;;;;;2.00;2.00;;;;;13.26;69.57;99911.09;1974941;28;2747169;-73
2023/04/12 03:20:24;;;;;;;;;2.33;1.00;;;;;13.27;69.18;99908.34;1972327;28;2728938;-73
2023/04/12 03:21:37;;;;;;;;;1.33;1.33;;;;;13.28;69.25;99907.41;1998458;28;2729445;-73
2023/04/12 03:22:47;;;;;;;;;3.67;2.00;;;;;13.30;69.54;99899.41;1949671;28;2754448;-73
2023/04/12 03:23:58;;;;;;;;;3.00;1.00;;;;;13.31;69.31;99900.25;1996741;28;2736756;-73
2023/04/12 03:25:12;;;;;;;;;2.83;2.83;;;;;13.32;69.31;99894.03;1988251;28;2754472;-73
2023/04/12 03:26:25;;;;;;;;;1.50;1.50;;;;;13.33;69.56;99887.81;1967861;28;2731524;-73
2023/04/12 03:27:38;;;;;;;;;1.17;1.17;;;;;13.34;69.06;99893.00;1999122;28;2722141;-73
2023/04/12 03:29:00;;;;;;;;;1.50;1.50;;;;;13.35;68.99;99888.59;1997852;28;2734695;-73
2023/04/12 03:30:14;;;;;;;;;1.83;1.83;;;;;13.36;69.60;99879.72;1973434;28;2748178;-73
2023/04/12 03:31:27;;;;;;;;;1.17;1.17;;;;;13.37;69.24;99881.41;1999570;28;2722161;-73
2023/04/12 03:32:38;;;;;;;;;4.67;2.00;;;;;13.39;69.37;99871.63;1949793;28;2751323;-73
2023/04/12 03:33:52;;;;;;;;;4.00;1.33;;;;;13.41;69.50;99879.47;1998103;28;2740368;-73
2023/04/12 03:35:09;;;;;;;;;1.33;1.33;;;;;13.41;69.52;99872.38;1974394;28;2737762;-73
2023/04/12 03:36:22;;;;;;;;;2.00;2.00;;;;;13.42;69.58;99879.38;1998497;28;2737790;-73
2023/04/12 03:37:36;;;;;;;;;2.50;1.67;;;;;13.43;69.47;99885.50;1979524;28;2737766;-73
2023/04/12 03:38:49;;;;;;;;;1.00;1.00;;;;;13.45;69.57;99883.63;2005082;28;2728399;-73
2023/04/12 03:40:03;;;;;;;;;1.00;1.00;;;;;13.45;69.56;99899.44;1996530;28;2733640;-73
2023/04/12 03:41:16;;;;;;;;;1.00;1.00;;;;;13.47;69.61;99887.00;1999009;28;2725523;-73
2023/04/12 03:42:29;;;;;;;;;2.50;2.00;;;;;13.46;69.41;99893.22;2003468;28;2734718;-73
2023/04/12 03:43:42;;;;;;;;;4.33;1.33;;;;;13.47;69.40;99893.16;1970279;28;2731564;-73
2023/04/12 03:44:56;;;;;;;;;2.67;0.83;;;;;13.47;69.43;99897.56;1970641;28;2725278;-73
2023/04/12 03:46:09;;;;;;;;;1.17;0.00;;;;;13.48;69.50;99900.09;2006335;28;2723187;-73
2023/04/12 03:47:22;;;;;;;;;2.67;0.67;;;;;13.49;69.64;99901.81;1997986;28;2728404;-73
2023/04/12 03:48:36;;;;;;;;;1.50;1.00;;;;;13.49;69.81;99908.88;1998455;28;2721096;-73
2023/04/12 03:49:49;;;;;;;;;0.50;0.50;;;;;13.49;69.77;99915.03;1973956;28;2729529;-73
2023/04/12 03:51:07;;;;;;;;;5.00;2.00;;;;;13.50;69.70;99918.50;1997968;28;2737830;-73
2023/04/12 03:52:20;;;;;;;;;1.00;1.00;;;;;13.49;70.08;99927.34;1975727;28;2728830;-73
2023/04/12 03:53:33;;;;;;;;;0.33;0.00;;;;;13.46;69.46;99923.09;1999431;28;2723218;-73
2023/04/12 03:54:47;;;;;;;;;0.17;0.17;;;;;13.44;69.30;99921.50;1998418;28;2728874;-73
2023/04/12 03:56:00;;;;;;;;;0.17;0.17;;;;;13.41;69.08;99911.97;1997866;28;2728408;-73
2023/04/12 03:57:13;;;;;;;;;0.00;0.00;;;;;13.41;69.04;99908.50;1998812;28;2727378;-73
2023/04/12 03:58:26;;;;;;;;;0.00;0.00;;;;;13.38;68.44;99904.25;1998522;28;2729437;-72
2023/04/12 03:59:39;;;;;;;;;0.00;0.00;;;;;13.37;68.53;99905.16;1998358;28;2724296;-72
2023/04/12 04:00:52;;;;;;;;;0.00;0.00;;;;;13.34;68.90;99908.84;1997153;28;2733631;-72
2023/04/12 04:02:06;;;;;;;;;0.00;0.00;;;;;13.34;68.32;99907.97;1973422;28;2722614;-73
2023/04/12 04:03:21;;;;;;;;;0.00;0.00;;;;;13.31;68.28;99908.19;1996584;28;2708597;-73
2023/04/12 04:04:36;;;;;;;;;0.00;0.00;;;;;13.28;67.96;99909.22;1991669;28;2725342;-73
2023/04/12 04:05:49;;;;;;;;;1.00;0.00;;;;;13.24;67.89;99919.06;1999201;28;2722174;-73
2023/04/12 04:07:02;;;;;;;;;0.00;0.00;;;;;13.22;67.95;99913.03;1997450;28;2725866;-73
2023/04/12 04:08:16;;;;;;;;;0.00;0.00;;;;;13.19;67.97;99910.56;1999496;28;2707590;-72
2023/04/12 04:09:29;;;;;;;;;1.00;0.00;;;;;13.18;68.23;99913.31;1997947;28;2723546;-72
2023/04/12 04:10:42;;;;;;;;;0.33;0.00;;;;;13.16;67.79;99914.22;1998910;28;2723214;-73
2023/04/12 04:11:55;;;;;;;;;0.00;0.00;;;;;13.14;67.91;99907.34;1997866;28;2725277;-73
2023/04/12 04:13:08;;;;;;;;;0.00;0.00;;;;;13.13;67.97;99909.16;1990546;28;2711722;-73
2023/04/12 04:14:21;;;;;;;;;0.00;0.00;;;;;13.14;68.07;99915.25;1990703;28;2723751;-73
2023/04/12 04:15:35;;;;;;;;;0.00;0.00;;;;;13.14;68.08;99907.34;2000633;28;2706517;-73
2023/04/12 04:16:48;;;;;;;;;0.00;0.00;;;;;13.15;67.96;99901.13;2003466;28;2725258;-72
2023/04/12 04:18:01;;;;;;;;;0.00;0.00;;;;;13.14;68.33;99902.06;1998248;28;2724588;-72
2023/04/12 04:19:14;;;;;;;;;0.00;0.00;;;;;13.14;68.03;99897.66;1998507;28;2717976;-72
2023/04/12 04:20:28;;;;;;;;;0.00;0.00;;;;;13.13;68.25;99898.59;1998989;28;2725267;-72
2023/04/12 04:21:41;;;;;;;;;0.00;0.00;;;;;13.13;68.17;99898.59;2006214;28;2712783;-73
2023/04/12 04:22:54;;;;;;;;;0.00;0.00;;;;;13.13;68.13;99895.97;2002078;28;2724221;-72
2023/04/12 04:24:10;;;;;;;;;0.00;0.00;;;;;13.14;68.05;99902.91;1996817;28;2725270;-72
2023/04/12 04:25:28;;;;;;;;;0.00;0.00;;;;;13.12;67.87;99888.97;1999031;28;2725657;-72
2023/04/12 04:26:42;;;;;;;;;0.00;0.00;;;;;13.12;67.99;99888.97;1999731;28;2704450;-72
2023/04/12 04:27:56;;;;;;;;;0.00;0.00;;;;;13.13;68.06;99892.47;2000333;28;2721107;-72
2023/04/12 04:29:10;;;;;;;;;0.00;0.00;;;;;13.11;68.21;99900.44;1998056;28;2723184;-72
2023/04/12 04:30:25;;;;;;;;;0.00;0.00;;;;;13.12;68.14;99898.66;1993129;28;2710735;-72
2023/04/12 04:31:38;;;;;;;;;0.00;0.00;;;;;13.12;68.07;99898.66;2000220;28;2700618;-72
2023/04/12 04:32:51;;;;;;;;;0.50;0.00;;;;;13.12;68.01;99893.41;1998116;28;2723192;-72
2023/04/12 04:34:05;;;;;;;;;0.00;0.00;;;;;13.11;67.56;99900.44;1988883;28;2724245;-72
2023/04/12 04:35:19;;;;;;;;;0.00;0.00;;;;;13.11;68.11;99897.00;1992122;28;2725274;-72
2023/04/12 04:36:34;;;;;;;;;0.00;0.00;;;;;13.10;68.02;99895.28;1975306;28;2721624;-72
2023/04/12 04:37:47;;;;;;;;;0.00;0.00;;;;;13.09;67.82;99896.22;1998847;28;2712771;-73
2023/04/12 04:39:01;;;;;;;;;0.00;0.00;;;;;13.09;68.08;99904.16;1998417;28;2725871;-73
2023/04/12 04:40:14;;;;;;;;;0.00;0.00;;;;;13.09;68.08;99896.22;1999193;28;2721120;-73
2023/04/12 04:41:33;;;;;;;;;0.00;0.00;;;;;13.09;68.16;99901.50;1998298;28;2722154;-72
2023/04/12 04:42:53;;;;;;;;;0.17;0.00;;;;;13.09;68.43;99898.88;1998250;28;2727342;-72
2023/04/12 04:44:08;;;;;;;;;0.00;0.00;;;;;13.08;67.99;99907.72;1975565;28;2719020;-72
2023/04/12 04:45:25;;;;;;;;;0.00;0.00;;;;;13.07;68.14;99901.56;1998798;28;2723195;-72
2023/04/12 04:46:38;;;;;;;;;0.00;0.00;;;;;13.07;68.17;99903.34;1998366;28;2723176;-72
2023/04/12 04:47:55;;;;;;;;;0.00;0.00;;;;;13.06;68.01;99899.91;1990467;28;2723610;-72
2023/04/12 04:49:08;;;;;;;;;0.00;0.00;;;;;13.05;67.88;99904.31;1990679;28;2721089;-72
2023/04/12 04:50:23;;;;;;;;;0.00;0.00;;;;;13.07;68.12;99903.34;1997370;28;2721127;-72
2023/04/12 04:51:36;;;;;;;;;0.00;0.00;;;;;13.08;67.93;99913.00;1998482;28;2725243;-72
2023/04/12 04:52:50;;;;;;;;;0.00;0.00;;;;;13.06;68.36;99902.53;1997504;28;2723179;-72
2023/04/12 04:54:03;;;;;;;;;0.00;0.00;;;;;13.06;67.89;99902.53;1996101;28;2721143;-72
2023/04/12 04:55:17;;;;;;;;;0.00;0.00;;;;;13.05;67.88;99904.31;1998249;28;2721103;-72
2023/04/12 04:56:31;;;;;;;;;0.00;0.00;;;;;13.04;67.85;99893.81;1998020;28;2725266;-72
2023/04/12 04:57:44;;;;;;;;;0.17;0.00;;;;;13.03;67.92;99889.50;1996643;28;2727353;-72
2023/04/12 04:58:57;;;;;;;;;0.00;0.00;;;;;13.02;67.74;99893.94;1974784;28;2719032;-72
2023/04/12 05:00:15;;;;;;;;;0.00;0.00;;;;;13.02;68.25;99899.19;1997024;28;2727462;-72
2023/04/12 05:01:28;;;;;;;;;0.00;0.00;;;;;13.01;67.89;99892.22;1997878;28;2708687;-73
2023/04/12 05:02:42;;;;;;;;;0.00;0.00;;;;;13.00;67.88;99893.16;1996926;28;2712795;-72
2023/04/12 05:03:55;;;;;;;;;0.00;0.00;;;;;13.00;67.97;99895.81;1997890;28;2725270;-73
2023/04/12 05:05:12;;;;;;;;;0.00;0.00;;;;;13.00;67.86;99897.59;1998445;28;2724241;-73
2023/04/12 05:06:26;;;;;;;;;0.00;0.00;;;;;13.00;68.37;99894.94;1996655;28;2722150;-73
2023/04/12 05:07:39;;;;;;;;;1.33;0.00;;;;;13.00;68.06;99906.34;1990897;28;2725263;-73
2023/04/12 05:08:52;;;;;;;;;0.00;0.00;;;;;12.99;68.25;99891.47;1975697;28;2724263;-73
2023/04/12 05:10:06;;;;;;;;;0.00;0.00;;;;;13.00;68.20;99898.44;1997519;28;2727362;-72
2023/04/12 05:11:20;;;;;;;;;0.00;0.00;;;;;13.00;68.32;99887.03;1975678;28;2719017;-72
2023/04/12 05:12:33;;;;;;;;;1.00;0.00;;;;;13.00;68.32;99879.13;1995768;28;2725342;-72
2023/04/12 05:13:46;;;;;;;;;0.00;0.00;;;;;13.00;68.48;99873.84;2002231;28;2721119;-73
2023/04/12 05:15:00;;;;;;;;;0.00;0.00;;;;;13.00;68.45;99860.66;1998730;28;2723175;-73
2023/04/12 05:16:13;;;;;;;;;1.00;0.00;;;;;12.99;68.32;99862.44;1998585;28;2733676;-73
2023/04/12 05:17:26;;;;;;;;;1.00;0.00;;;;;13.00;68.51;99873.84;1997322;28;2727867;-73
2023/04/12 05:18:40;;;;;;;;;2.33;1.67;;;;;12.99;68.58;99877.44;1973779;28;2735723;-73
2023/04/12 05:19:53;;;;;;;;;0.00;0.00;;;;;13.00;68.68;99879.13;1974154;28;2725322;-73
2023/04/12 05:21:06;;;;;;;;;1.83;1.00;;;;;12.99;68.59;99875.63;1997278;28;2736735;-73
2023/04/12 05:22:20;;;;;;;;;0.00;0.00;;;;;12.99;68.66;99867.72;1976167;28;2711066;-73
2023/04/12 05:23:36;;;;;;;;;0.00;0.00;;;;;13.00;68.85;99860.66;1995702;28;2731568;-73
2023/04/12 05:24:49;;;;;;;;;0.50;0.50;;;;;13.00;68.62;99866.78;1989371;28;2727338;-73
2023/04/12 05:26:03;;;;;;;;;0.33;0.00;;;;;12.99;68.68;99870.34;1990509;28;2733628;-73
2023/04/12 05:27:17;;;;;;;;;0.00;0.00;;;;;12.99;68.63;99874.81;1997815;28;2731918;-73
2023/04/12 05:28:31;;;;;;;;;0.00;0.00;;;;;12.99;68.95;99883.53;1991894;28;2731504;-73
2023/04/12 05:29:44;;;;;;;;;0.00;0.00;;;;;12.99;68.69;99894.09;1998430;28;2733638;-73
2023/04/12 05:30:57;;;;;;;;;0.00;0.00;;;;;12.99;68.67;99898.53;1982401;28;2728458;-73
2023/04/12 05:32:10;;;;;;;;;0.00;0.00;;;;;13.00;68.63;99902.88;1989739;28;2728452;-73
2023/04/12 05:33:24;;;;;;;;;0.00;0.00;;;;;12.98;68.51;99902.97;1975326;28;2734120;-73
2023/04/12 05:34:37;;;;;;;;;0.00;0.00;;;;;12.98;68.62;99900.31;1992885;28;2724268;-73
2023/04/12 05:35:50;;;;;;;;;0.00;0.00;;;;;12.98;68.69;99908.25;1973003;28;2728448;-73
2023/04/12 05:37:04;;;;;;;;;0.00;0.00;;;;;12.97;68.68;99906.53;1994395;28;2733666;-73
2023/04/12 05:38:17;;;;;;;;;0.00;0.00;;;;;12.97;68.65;99914.44;1974687;28;2733954;-74
2023/04/12 05:39:30;;;;;;;;;0.00;0.00;;;;;12.97;68.73;99910.94;1997148;28;2725263;-73
2023/04/12 05:40:43;;;;;;;;;1.00;1.00;;;;;12.97;68.67;99911.81;1997848;28;2725303;-73
2023/04/12 05:41:57;;;;;;;;;0.00;0.00;;;;;12.96;68.86;99907.47;1996684;28;2725621;-73
2023/04/12 05:43:13;;;;;;;;;0.00;0.00;;;;;12.97;68.37;99910.94;1974102;28;2723203;-73